Time;durP1;ratioP1;P1;durP2;ratioP2;P2;SDS_P1;SDS_P2;PMS_P1;PMS_P2;Temp;Humidity;BMP_temperature;BMP_pressure;BME280_temperature;BME280_humidity;BME280_pressure;Samples;Min_cycle;Max_cycle;Signal;HPM_P1;HPM_P2
2021/10/03 00:00:07;;;;;;;0.10;0.10;;;;;;;13.92;89.25;99608.72;5001036;28;20646;-82
2021/10/03 00:02:43;;;;;;;0.20;0.20;;;;;;;13.97;89.51;99607.75;5010032;28;20057;-81
2021/10/03 00:05:18;;;;;;;0.20;0.20;;;;;;;13.91;89.44;99601.66;5004536;28;20050;-81
2021/10/03 00:07:58;;;;;;;0.20;0.20;;;;;;;13.97;88.36;99616.75;5010315;28;20050;-80
2021/10/03 00:10:32;;;;;;;0.20;0.20;;;;;;;14.03;89.09;99617.38;5006810;28;20045;-80
2021/10/03 00:13:06;;;;;;;0.20;0.20;;;;;;;13.94;90.61;99625.63;5001019;28;20042;-80
2021/10/03 00:16:05;;;;;;;0.20;0.20;;;;;;;13.97;90.17;99603.06;5011588;28;20057;-80
2021/10/03 00:18:39;;;;;;;0.20;0.20;;;;;;;14.12;90.37;99591.56;5008724;28;20062;-81
2021/10/03 00:21:12;;;;;;;0.17;0.17;;;;;;;14.02;90.31;99582.97;5009660;28;20057;-79
2021/10/03 00:23:46;;;;;;;0.15;0.15;;;;;;;14.01;90.63;99584.06;5010079;28;20042;-80
2021/10/03 00:26:20;;;;;;;0.20;0.20;;;;;;;14.05;90.34;99565.88;5022963;28;20065;-81
2021/10/03 00:28:48;;;;;;;0.15;0.15;;;;;;;14.00;91.67;99569.59;5009559;28;20422;-80
2021/10/03 00:31:21;;;;;;;0.20;0.20;;;;;;;14.00;90.96;99558.63;5010176;28;20041;-80
2021/10/03 00:33:55;;;;;;;0.20;0.20;;;;;;;13.96;91.18;99554.97;5007705;28;20038;-81
2021/10/03 00:36:28;;;;;;;0.20;0.20;;;;;;;14.00;91.52;99544.97;5002477;28;20049;-80
2021/10/03 00:39:03;;;;;;;0.20;0.20;;;;;;;13.97;91.76;99551.09;5010989;28;20050;-80
2021/10/03 00:41:36;;;;;;;0.20;0.20;;;;;;;14.02;91.29;99550.13;5010439;28;20045;-80
2021/10/03 00:44:09;;;;;;;0.10;0.10;;;;;;;14.03;91.76;99547.06;5010138;28;20058;-81
2021/10/03 00:46:42;;;;;;;0.20;0.20;;;;;;;14.00;92.07;99544.97;5009851;28;20050;-80
2021/10/03 00:49:11;;;;;;;0.20;0.20;;;;;;;14.01;92.02;99543.06;5014531;28;20478;-80
2021/10/03 00:51:44;;;;;;;0.20;0.20;;;;;;;14.06;92.21;99545.59;5008123;28;20066;-80
2021/10/03 00:54:13;;;;;;;0.20;0.20;;;;;;;14.09;92.04;99556.66;5018476;28;20060;-81
2021/10/03 00:56:48;;;;;;;0.20;0.20;;;;;;;14.11;92.75;99557.16;5012787;28;20054;-81
2021/10/03 00:59:21;;;;;;;0.40;0.20;;;;;;;14.09;94.44;99547.66;5012919;28;20055;-81
2021/10/03 01:01:49;;;;;;;0.20;0.20;;;;;;;13.92;98.66;99527.50;5011160;28;20046;-81
2021/10/03 01:04:23;;;;;;;0.20;0.20;;;;;;;13.75;100.00;99522.94;5011863;28;20061;-81
2021/10/03 01:06:52;;;;;;;0.20;0.20;;;;;;;13.70;100.00;99534.03;5011434;28;20053;-80
2021/10/03 01:09:27;;;;;;;0.20;0.20;;;;;;;13.66;100.00;99524.88;5010636;28;20050;-80
2021/10/03 01:12:00;;;;;;;0.20;0.20;;;;;;;13.71;100.00;99516.50;5011599;28;20425;-81
2021/10/03 01:14:34;;;;;;;0.20;0.20;;;;;;;13.65;100.00;99514.28;5013759;28;20058;-80
2021/10/03 01:17:08;;;;;;;0.20;0.20;;;;;;;13.71;100.00;99511.03;5012293;28;20405;-80
2021/10/03 01:19:41;;;;;;;0.47;0.30;;;;;;;13.73;100.00;99516.97;5012637;28;20056;-81
2021/10/03 01:22:10;;;;;;;0.20;0.20;;;;;;;13.78;100.00;99513.22;5010517;28;20049;-81
2021/10/03 01:24:44;;;;;;;0.20;0.20;;;;;;;13.89;98.52;99492.59;5012861;28;20615;-81
2021/10/03 01:27:17;;;;;;;0.20;0.20;;;;;;;13.90;97.26;99485.97;5008331;28;20041;-80
2021/10/03 01:29:46;;;;;;;0.20;0.20;;;;;;;13.86;99.63;99468.63;5009896;28;20054;-79
2021/10/03 01:32:19;;;;;;;0.28;0.20;;;;;;;13.92;98.81;99464.59;5008983;28;20052;-81
2021/10/03 01:34:47;;;;;;;0.20;0.20;;;;;;;14.00;97.99;99470.31;5026310;28;20050;-80
2021/10/03 01:37:23;;;;;;;0.20;0.20;;;;;;;14.04;98.53;99474.00;5011313;28;20049;-81
2021/10/03 01:39:57;;;;;;;0.22;0.22;;;;;;;14.05;97.31;99462.72;5026550;28;20045;-80
2021/10/03 01:42:31;;;;;;;0.13;0.13;;;;;;;14.14;97.88;99456.38;5011141;28;20068;-80
2021/10/03 01:45:06;;;;;;;0.20;0.20;;;;;;;14.22;96.31;99453.56;5012027;28;20038;-81
2021/10/03 01:48:00;;;;;;;0.20;0.20;;;;;;;14.46;94.66;99439.22;5012325;28;20517;-81
2021/10/03 01:50:28;;;;;;;0.20;0.20;;;;;;;14.61;92.82;99464.34;5011071;28;20048;-81
2021/10/03 01:53:03;;;;;;;0.20;0.20;;;;;;;14.62;93.88;99455.00;5011528;28;20049;-80
2021/10/03 01:55:32;;;;;;;0.10;0.10;;;;;;;14.84;91.37;99453.03;5011919;28;20482;-80
2021/10/03 01:58:06;;;;;;;0.17;0.17;;;;;;;14.85;91.68;99460.91;5009473;28;20049;-81
2021/10/03 02:00:40;;;;;;;0.22;0.20;;;;;;;14.82;91.88;99466.25;5012014;28;20045;-81
2021/10/03 02:03:14;;;;;;;0.20;0.20;;;;;;;14.92;90.37;99466.63;5010642;28;20053;-81
2021/10/03 02:05:45;;;;;;;0.20;0.20;;;;;;;14.89;91.49;99467.31;5026616;28;20054;-80
2021/10/03 02:08:19;;;;;;;0.20;0.20;;;;;;;14.94;90.04;99467.13;5009948;28;20665;-80
2021/10/03 02:10:53;;;;;;;0.20;0.20;;;;;;;15.03;89.74;99458.00;5026442;28;20046;-80
2021/10/03 02:13:23;;;;;;;0.25;0.25;;;;;;;15.12;89.15;99464.97;5010982;28;20049;-80
2021/10/03 02:15:53;;;;;;;0.20;0.20;;;;;;;15.22;88.43;99454.69;5025844;28;20047;-80
2021/10/03 02:18:23;;;;;;;0.20;0.20;;;;;;;15.20;89.37;99465.22;5010845;28;20050;-80
2021/10/03 02:20:56;;;;;;;0.20;0.20;;;;;;;15.35;86.82;99474.72;5008023;28;20054;-80
2021/10/03 02:23:34;;;;;;;0.10;0.10;;;;;;;15.32;87.35;99458.97;5010213;28;20042;-80
2021/10/03 02:26:08;;;;;;;0.20;0.20;;;;;;;15.33;87.75;99466.00;5010827;28;20052;-81
2021/10/03 02:28:41;;;;;;;0.20;0.20;;;;;;;15.39;87.91;99459.97;5011912;28;20045;-79
2021/10/03 02:31:14;;;;;;;0.20;0.20;;;;;;;15.33;88.05;99452.31;5011075;28;20061;-80
2021/10/03 02:33:44;;;;;;;0.15;0.15;;;;;;;15.33;87.27;99433.13;5009994;28;20046;-80
2021/10/03 02:36:20;;;;;;;0.20;0.20;;;;;;;15.52;87.22;99443.53;5010157;28;20050;-80
2021/10/03 02:38:55;;;;;;;0.20;0.20;;;;;;;15.68;84.90;99432.66;5006236;28;20061;-81
2021/10/03 02:41:28;;;;;;;0.20;0.20;;;;;;;15.70;85.96;99413.91;5009571;28;20038;-80
2021/10/03 02:43:59;;;;;;;0.28;0.20;;;;;;;15.69;85.53;99428.75;5010989;28;20045;-80
2021/10/03 02:46:28;;;;;;;0.20;0.20;;;;;;;15.78;84.53;99422.03;5024992;28;20042;-79
2021/10/03 02:49:01;;;;;;;0.20;0.20;;;;;;;15.72;86.34;99414.38;5016290;28;20378;-80
2021/10/03 02:51:35;;;;;;;0.20;0.20;;;;;;;15.84;83.89;99406.16;5012236;28;20406;-79
2021/10/03 02:54:09;;;;;;;0.20;0.20;;;;;;;15.76;85.36;99405.09;5016622;28;20393;-79
2021/10/03 02:56:42;;;;;;;0.20;0.20;;;;;;;15.86;83.88;99392.88;5013730;28;20046;-80
2021/10/03 02:59:16;;;;;;;0.10;0.10;;;;;;;15.88;83.16;99404.31;5010539;28;20050;-80
2021/10/03 03:01:49;;;;;;;0.20;0.20;;;;;;;15.85;83.88;99402.25;5009986;28;20053;-81
2021/10/03 03:04:22;;;;;;;0.20;0.20;;;;;;;15.89;82.90;99394.13;5005448;28;20045;-81
2021/10/03 03:06:55;;;;;;;0.20;0.20;;;;;;;15.96;82.74;99410.78;5011291;28;20049;-80
2021/10/03 03:09:30;;;;;;;0.20;0.20;;;;;;;15.91;83.79;99409.09;5012828;28;20052;-81
2021/10/03 03:11:58;;;;;;;0.20;0.20;;;;;;;15.89;82.57;99405.88;5038473;28;20054;-79
2021/10/03 03:14:31;;;;;;;0.10;0.10;;;;;;;15.83;83.22;99409.25;5016923;28;20045;-80
2021/10/03 03:17:16;;;;;;;0.20;0.20;;;;;;;15.78;83.75;99424.78;5010503;28;20046;-80
2021/10/03 03:19:49;;;;;;;0.20;0.20;;;;;;;15.90;81.38;99409.44;5009553;28;20478;-82
2021/10/03 03:22:23;;;;;;;0.20;0.20;;;;;;;15.88;83.03;99409.81;5012406;28;20041;-80
2021/10/03 03:24:57;;;;;;;0.20;0.20;;;;;;;15.84;82.77;99408.91;5009177;28;20046;-80
2021/10/03 03:27:30;;;;;;;0.20;0.20;;;;;;;15.77;83.56;99408.63;5009301;28;20053;-80
2021/10/03 03:29:59;;;;;;;0.20;0.20;;;;;;;15.79;83.79;99409.09;5011254;28;20787;-81
2021/10/03 03:32:32;;;;;;;0.10;0.10;;;;;;;15.78;83.02;99402.81;5016272;28;20386;-80
2021/10/03 03:35:09;;;;;;;0.20;0.20;;;;;;;15.77;82.91;99394.91;5026093;28;20046;-80
2021/10/03 03:37:43;;;;;;;0.20;0.20;;;;;;;15.79;83.12;99409.09;5011933;28;20045;-79
2021/10/03 03:40:19;;;;;;;0.20;0.20;;;;;;;15.74;83.65;99406.59;5011635;28;20053;-81
2021/10/03 03:42:53;;;;;;;0.20;0.20;;;;;;;15.71;83.03;99391.63;5014647;28;20045;-81
2021/10/03 03:45:26;;;;;;;0.20;0.20;;;;;;;15.78;82.62;99402.00;5011718;28;20800;-80
2021/10/03 03:48:01;;;;;;;0.20;0.20;;;;;;;15.65;84.84;99399.28;5012399;28;20041;-82
2021/10/03 03:50:35;;;;;;;0.40;0.10;;;;;;;15.78;82.70;99404.75;5011886;28;20049;-81
2021/10/03 03:53:03;;;;;;;0.25;0.25;;;;;;;15.72;83.58;99403.41;5011130;28;20052;-80
2021/10/03 03:55:37;;;;;;;0.17;0.17;;;;;;;15.64;84.19;99407.88;5009276;28;20359;-81
2021/10/03 03:58:06;;;;;;;0.20;0.20;;;;;;;15.58;84.57;99401.03;5011876;28;20042;-80
2021/10/03 04:00:39;;;;;;;0.20;0.20;;;;;;;15.55;84.44;99409.94;5004527;28;20042;-80
2021/10/03 04:03:12;;;;;;;0.10;0.10;;;;;;;15.50;84.82;99421.94;5012910;28;20042;-80
2021/10/03 04:05:45;;;;;;;0.20;0.20;;;;;;;15.55;83.64;99418.16;5011583;28;20493;-80
2021/10/03 04:08:21;;;;;;;0.20;0.20;;;;;;;15.50;83.82;99421.16;5009790;28;20060;-80
2021/10/03 04:10:56;;;;;;;0.20;0.20;;;;;;;15.45;84.39;99419.41;5010468;28;20484;-80
2021/10/03 04:13:30;;;;;;;0.20;0.20;;;;;;;15.36;84.66;99422.28;5007058;28;20061;-81
2021/10/03 04:15:58;;;;;;;0.10;0.10;;;;;;;15.44;83.46;99421.38;5010807;28;20045;-80
2021/10/03 04:18:31;;;;;;;0.20;0.20;;;;;;;15.33;84.65;99422.16;5007566;28;20763;-80
2021/10/03 04:20:59;;;;;;;0.20;0.20;;;;;;;15.27;84.24;99424.31;5016948;28;20045;-81
2021/10/03 04:23:32;;;;;;;1.55;0.20;;;;;;;15.30;83.43;99418.16;5030159;28;20045;-80
2021/10/03 04:26:07;;;;;;;0.28;0.28;;;;;;;15.33;83.02;99416.69;5016928;28;20477;-82
2021/10/03 04:28:40;;;;;;;0.20;0.20;;;;;;;15.37;81.47;99420.31;5031924;28;20845;-80
2021/10/03 04:31:13;;;;;;;0.10;0.10;;;;;;;15.30;83.31;99410.75;5022359;28;20061;-80
2021/10/03 04:33:42;;;;;;;0.10;0.10;;;;;;;15.25;82.80;99412.91;5028261;28;20061;-80
2021/10/03 04:36:15;;;;;;;0.20;0.20;;;;;;;15.24;82.90;99411.31;5014683;28;20050;-81
2021/10/03 04:38:43;;;;;;;0.20;0.20;;;;;;;15.21;82.54;99415.53;5014222;28;20057;-81
2021/10/03 04:41:18;;;;;;;0.13;0.13;;;;;;;15.29;83.04;99419.31;5029689;28;20050;-81
2021/10/03 04:43:51;;;;;;;0.20;0.20;;;;;;;15.20;83.06;99421.38;5013907;28;20057;-80
2021/10/03 04:46:24;;;;;;;0.20;0.20;;;;;;;15.18;83.75;99423.63;5014302;28;20401;-81
2021/10/03 04:48:58;;;;;;;0.10;0.10;;;;;;;15.17;83.05;99419.31;5012504;28;20042;-80
2021/10/03 04:51:31;;;;;;;0.20;0.20;;;;;;;15.21;83.00;99426.50;5015162;28;20049;-81
2021/10/03 04:53:59;;;;;;;0.20;0.20;;;;;;;15.22;82.98;99424.53;5016549;28;20052;-81
2021/10/03 04:56:33;;;;;;;0.20;0.20;;;;;;;15.15;83.27;99430.63;5012803;28;20049;-81
2021/10/03 04:59:02;;;;;;;0.20;0.20;;;;;;;15.23;83.02;99426.16;5014092;28;20486;-81
2021/10/03 05:01:35;;;;;;;0.20;0.20;;;;;;;15.24;81.78;99427.75;5013732;28;20506;-81
2021/10/03 05:04:08;;;;;;;0.10;0.10;;;;;;;15.19;83.67;99426.06;5007916;28;20490;-81
2021/10/03 05:06:41;;;;;;;0.20;0.20;;;;;;;15.20;83.38;99427.63;5013224;28;20041;-80
2021/10/03 05:09:09;;;;;;;0.10;0.10;;;;;;;15.15;83.82;99427.88;5013430;28;20046;-80
2021/10/03 05:11:44;;;;;;;0.10;0.10;;;;;;;15.25;82.19;99432.09;5014382;28;20052;-80
2021/10/03 05:14:18;;;;;;;0.30;0.17;;;;;;;15.17;83.16;99425.59;5022285;28;20033;-80
2021/10/03 05:16:52;;;;;;;0.17;0.17;;;;;;;15.17;82.45;99425.59;5014148;28;20501;-81
2021/10/03 05:19:20;;;;;;;0.20;0.20;;;;;;;15.19;82.80;99419.75;5013779;28;20057;-80
2021/10/03 05:21:53;;;;;;;0.20;0.20;;;;;;;15.14;83.27;99424.31;5026597;28;20065;-81
2021/10/03 05:24:26;;;;;;;0.10;0.10;;;;;;;15.14;82.43;99427.06;5027332;28;20069;-80
2021/10/03 05:26:56;;;;;;;0.20;0.20;;;;;;;15.19;82.67;99431.53;5013195;28;20421;-80
2021/10/03 05:29:24;;;;;;;0.10;0.10;;;;;;;15.04;83.89;99419.31;5012601;28;20057;-81
2021/10/03 05:31:57;;;;;;;0.10;0.10;;;;;;;15.06;84.93;99419.75;5014514;28;20048;-79
2021/10/03 05:34:30;;;;;;;0.20;0.20;;;;;;;15.03;83.51;99422.38;5015214;28;20046;-81
2021/10/03 05:37:04;;;;;;;0.20;0.20;;;;;;;15.04;85.19;99430.25;5015722;28;20041;-80
2021/10/03 05:39:37;;;;;;;0.20;0.20;;;;;;;15.08;83.31;99436.66;5015586;28;21020;-80
2021/10/03 05:42:11;;;;;;;0.20;0.20;;;;;;;15.03;84.73;99419.66;5012820;28;20391;-80
2021/10/03 05:44:45;;;;;;;0.10;0.10;;;;;;;14.99;84.68;99429.69;5016644;28;20038;-81
2021/10/03 05:47:18;;;;;;;0.20;0.20;;;;;;;15.11;83.66;99426.97;5013925;28;20038;-80
2021/10/03 05:49:51;;;;;;;0.20;0.20;;;;;;;15.11;84.04;99424.22;5014330;28;20056;-80
2021/10/03 05:52:19;;;;;;;0.10;0.10;;;;;;;15.05;83.92;99425.56;5012334;28;20058;-80
2021/10/03 05:54:52;;;;;;;0.20;0.20;;;;;;;15.11;83.24;99432.44;5014473;28;20054;-81
2021/10/03 05:57:27;;;;;;;0.20;0.20;;;;;;;15.13;83.39;99425.47;5012951;28;20042;-80
2021/10/03 05:59:55;;;;;;;0.20;0.20;;;;;;;15.15;83.44;99430.63;5015254;28;20068;-81
2021/10/03 06:02:31;;;;;;;0.20;0.20;;;;;;;15.15;83.76;99438.84;5020431;28;20057;-80
2021/10/03 06:05:05;;;;;;;0.20;0.20;;;;;;;15.18;83.99;99440.88;5012179;28;20080;-80
2021/10/03 06:07:38;;;;;;;0.10;0.10;;;;;;;15.22;82.48;99430.84;5009947;28;20057;-80
2021/10/03 06:10:19;;;;;;;0.20;0.20;;;;;;;15.24;82.63;99435.97;5012547;28;20462;-80
2021/10/03 06:12:55;;;;;;;0.30;0.20;;;;;;;15.19;84.31;99425.25;5014707;28;20052;-81
2021/10/03 06:15:28;;;;;;;0.20;0.20;;;;;;;15.31;82.76;99441.69;5022924;28;20482;-81
2021/10/03 06:18:02;;;;;;;0.20;0.20;;;;;;;15.30;84.55;99440.09;5027815;28;20053;-80
2021/10/03 06:20:37;;;;;;;0.43;0.20;;;;;;;15.39;83.63;99446.25;5013523;28;20490;-81
2021/10/03 06:23:10;;;;;;;0.13;0.13;;;;;;;15.44;83.32;99450.72;5016638;28;20060;-80
2021/10/03 06:25:44;;;;;;;0.20;0.20;;;;;;;15.44;83.31;99431.53;5003698;28;20052;-80
2021/10/03 06:28:18;;;;;;;0.10;0.10;;;;;;;15.48;82.67;99437.94;5013407;28;20049;-81
2021/10/03 06:30:51;;;;;;;0.20;0.20;;;;;;;15.39;83.87;99429.81;5013298;28;20068;-80
2021/10/03 06:33:25;;;;;;;0.20;0.20;;;;;;;15.43;83.55;99447.19;5011121;28;20050;-81
2021/10/03 06:35:53;;;;;;;0.20;0.20;;;;;;;15.51;82.90;99440.00;5011812;28;20042;-80
2021/10/03 06:38:26;;;;;;;0.20;0.20;;;;;;;15.52;83.10;99444.31;5013779;28;20054;-80
2021/10/03 06:40:59;;;;;;;0.20;0.20;;;;;;;15.53;82.33;99443.16;5017665;28;20129;-80
2021/10/03 06:43:38;;;;;;;0.20;0.20;;;;;;;15.54;83.38;99449.47;5012105;28;20046;-81
2021/10/03 06:46:11;;;;;;;0.20;0.20;;;;;;;15.57;83.26;99455.06;5011538;28;20037;-80
2021/10/03 06:48:39;;;;;;;0.20;0.20;;;;;;;15.50;84.11;99454.03;5016272;28;20064;-80
2021/10/03 06:51:07;;;;;;;0.10;0.10;;;;;;;15.49;84.10;99453.22;5024276;28;20050;-80
2021/10/03 06:53:43;;;;;;;0.20;0.20;;;;;;;15.47;84.58;99455.53;5016437;28;20084;-80
2021/10/03 06:56:16;;;;;;;0.15;0.15;;;;;;;15.55;82.91;99449.13;5018022;28;20049;-80
2021/10/03 06:58:51;;;;;;;0.20;0.20;;;;;;;15.63;82.12;99453.69;5022351;28;20068;-80
2021/10/03 07:01:24;;;;;;;0.17;0.17;;;;;;;15.54;84.59;99438.50;5008246;28;20046;-80
2021/10/03 07:03:57;;;;;;;0.17;0.17;;;;;;;15.62;83.67;99446.59;5014673;28;20042;-80
2021/10/03 07:06:30;;;;;;;0.20;0.20;;;;;;;15.62;83.77;99451.31;5012349;28;20041;-79
2021/10/03 07:09:09;;;;;;;0.68;0.30;;;;;;;15.64;84.78;99462.72;5013103;28;20041;-80
2021/10/03 07:11:37;;;;;;;0.20;0.20;;;;;;;15.67;84.07;99461.22;5015121;28;20397;-79
2021/10/03 07:14:11;;;;;;;0.20;0.20;;;;;;;15.73;83.83;99466.13;5014199;28;20053;-80
2021/10/03 07:17:01;;;;;;;0.20;0.20;;;;;;;15.72;84.46;99459.03;5008211;28;20499;-81
2021/10/03 07:19:35;;;;;;;0.20;0.20;;;;;;;15.82;83.72;99468.78;5026346;28;20045;-80
2021/10/03 07:22:08;;;;;;;0.20;0.20;;;;;;;15.96;83.04;99458.25;5014394;28;20049;-80
2021/10/03 07:24:41;;;;;;;0.20;0.20;;;;;;;16.00;84.17;99465.78;5018624;28;20050;-81
2021/10/03 07:27:15;;;;;;;0.10;0.10;;;;;;;15.96;84.00;99473.91;5014195;28;20054;-80
2021/10/03 07:29:49;;;;;;;0.10;0.10;;;;;;;15.94;83.13;99470.72;5028798;28;20434;-80
2021/10/03 07:32:32;;;;;;;0.20;0.20;;;;;;;16.04;83.92;99464.75;5017740;28;20041;-80
2021/10/03 07:35:06;;;;;;;0.20;0.20;;;;;;;16.07;83.88;99475.03;5015476;28;20065;-81
2021/10/03 07:37:39;;;;;;;0.20;0.20;;;;;;;16.12;83.54;99477.53;5018892;28;20475;-80
2021/10/03 07:40:13;;;;;;;0.22;0.20;;;;;;;16.17;84.36;99472.94;5018132;28;20041;-80
2021/10/03 07:42:42;;;;;;;0.20;0.20;;;;;;;16.22;83.68;99473.50;5015564;28;20053;-81
2021/10/03 07:45:16;;;;;;;0.20;0.20;;;;;;;16.21;83.09;99473.84;5032373;28;20391;-81
2021/10/03 07:47:49;;;;;;;0.20;0.20;;;;;;;16.23;84.34;99479.81;5010113;28;20034;-81
2021/10/03 07:50:28;;;;;;;0.17;0.17;;;;;;;16.31;83.28;99473.38;5012833;28;20509;-80
2021/10/03 07:53:01;;;;;;;0.10;0.10;;;;;;;16.29;84.35;99481.94;5014989;28;20497;-81
2021/10/03 07:55:34;;;;;;;0.20;0.20;;;;;;;16.31;84.28;99479.66;5009130;28;20050;-82
2021/10/03 07:58:07;;;;;;;0.13;0.13;;;;;;;16.27;83.94;99483.47;5016930;28;20494;-80
2021/10/03 08:00:42;;;;;;;0.10;0.10;;;;;;;16.24;82.56;99486.88;5009484;28;20062;-80
2021/10/03 08:03:10;;;;;;;0.20;0.20;;;;;;;16.23;83.50;99488.81;5010257;28;20081;-81
2021/10/03 08:05:44;;;;;;;0.20;0.20;;;;;;;16.23;83.25;99490.78;5007991;28;20053;-80
2021/10/03 08:08:18;;;;;;;0.10;0.10;;;;;;;16.24;82.66;99498.66;5013746;28;20054;-80
2021/10/03 08:10:51;;;;;;;0.10;0.10;;;;;;;16.30;83.31;99493.72;5009542;28;20069;-80
2021/10/03 08:13:24;;;;;;;0.20;0.20;;;;;;;16.36;82.68;99486.84;5010463;28;20046;-80
2021/10/03 08:15:58;;;;;;;0.20;0.20;;;;;;;16.33;83.19;99499.31;5004832;28;20053;-82
2021/10/03 08:18:31;;;;;;;0.20;0.20;;;;;;;16.26;83.59;99493.63;5004148;28;20399;-81
2021/10/03 08:21:05;;;;;;;0.20;0.20;;;;;;;16.34;83.55;99502.88;5029434;28;20053;-80
2021/10/03 08:23:38;;;;;;;0.20;0.20;;;;;;;16.39;83.21;99507.31;5011162;28;20050;-80
2021/10/03 08:26:06;;;;;;;0.20;0.20;;;;;;;16.40;82.50;99501.47;5012223;28;20049;-80
2021/10/03 08:28:41;;;;;;;0.43;0.20;;;;;;;16.43;81.96;99497.22;5015277;28;20046;-80
2021/10/03 08:31:15;;;;;;;0.20;0.20;;;;;;;16.44;83.24;99499.63;5011810;28;20417;-80
2021/10/03 08:33:48;;;;;;;0.20;0.20;;;;;;;16.36;83.30;99508.81;5011150;28;20363;-80
2021/10/03 08:36:21;;;;;;;0.30;0.20;;;;;;;16.31;83.99;99506.31;5020293;28;20046;-80
2021/10/03 08:38:55;;;;;;;0.10;0.10;;;;;;;16.23;83.74;99502.56;5004476;28;20563;-80
2021/10/03 08:41:28;;;;;;;0.20;0.20;;;;;;;16.25;83.26;99508.47;5029535;28;20049;-80
2021/10/03 08:44:01;;;;;;;0.22;0.22;;;;;;;16.25;83.28;99500.25;5011120;28;20414;-80
2021/10/03 08:46:37;;;;;;;0.10;0.10;;;;;;;16.38;82.73;99497.47;5012279;28;20041;-80
2021/10/03 08:49:10;;;;;;;0.20;0.20;;;;;;;16.36;82.72;99484.09;5011199;28;20418;-80
2021/10/03 08:51:46;;;;;;;0.20;0.20;;;;;;;16.49;82.13;99485.66;5021319;28;20057;-80
2021/10/03 08:54:20;;;;;;;0.20;0.20;;;;;;;16.44;83.61;99468.63;4997188;28;20081;-80
2021/10/03 08:56:56;;;;;;;0.20;0.20;;;;;;;16.50;82.61;99472.72;5029590;28;20050;-81
2021/10/03 08:59:29;;;;;;;0.10;0.10;;;;;;;16.59;82.61;99480.81;5013679;28;20052;-80
2021/10/03 09:02:05;;;;;;;0.20;0.20;;;;;;;16.62;80.43;99469.13;5024683;28;20201;-84
2021/10/03 09:04:38;;;;;;;0.20;0.20;;;;;;;16.77;81.93;99473.84;5016162;28;20053;-82
2021/10/03 09:07:09;;;;;;;0.32;0.20;;;;;;;16.78;79.79;99477.44;5013048;28;20061;-83
2021/10/03 09:09:56;;;;;;;0.20;0.20;;;;;;;16.92;80.36;99486.06;5012135;28;20042;-81
2021/10/03 09:12:32;;;;;;;0.20;0.20;;;;;;;16.94;81.29;99477.47;5017814;28;20044;-84
2021/10/03 09:15:15;;;;;;;0.20;0.20;;;;;;;17.03;78.81;99497.34;5024802;28;20057;-83
2021/10/03 09:17:51;;;;;;;0.17;0.17;;;;;;;17.09;82.39;99479.44;5013396;28;20053;-83
2021/10/03 09:20:26;;;;;;;0.10;0.10;;;;;;;17.14;80.81;99476.44;5019854;28;20037;-82
2021/10/03 09:23:02;;;;;;;0.20;0.20;;;;;;;17.25;79.42;99492.38;5016203;28;20057;-77
2021/10/03 09:25:41;;;;;;;0.17;0.17;;;;;;;17.26;81.31;99478.31;5017174;28;20053;-78
2021/10/03 09:28:12;;;;;;;0.10;0.10;;;;;;;17.14;82.59;99495.66;5025886;28;20482;-79
2021/10/03 09:30:58;;;;;;;0.20;0.20;;;;;;;17.13;81.49;99498.78;4999905;28;20053;-78
2021/10/03 09:33:38;;;;;;;0.20;0.20;;;;;;;17.13;80.72;99499.56;5032384;28;20409;-79
2021/10/03 09:36:14;;;;;;;0.40;0.20;;;;;;;17.15;81.64;99490.97;5010761;28;20057;-79
2021/10/03 09:38:51;;;;;;;0.10;0.10;;;;;;;17.13;81.44;99518.81;5022438;28;20045;-79
2021/10/03 09:41:28;;;;;;;0.20;0.20;;;;;;;17.11;81.65;99514.81;5024146;28;20057;-79
2021/10/03 09:44:07;;;;;;;0.20;0.20;;;;;;;17.03;80.69;99507.53;5029500;28;20112;-79
2021/10/03 09:46:44;;;;;;;0.20;0.20;;;;;;;17.04;82.58;99504.44;5024966;28;20046;-79
2021/10/03 09:49:16;;;;;;;0.20;0.20;;;;;;;17.21;81.59;99510.75;5011386;28;20481;-79
2021/10/03 09:51:50;;;;;;;0.40;0.28;;;;;;;17.16;81.66;99517.31;5011322;28;20057;-79
2021/10/03 09:54:25;;;;;;;0.10;0.10;;;;;;;17.03;80.47;99510.28;5013951;28;20046;-79
2021/10/03 09:56:54;;;;;;;0.20;0.20;;;;;;;17.11;80.71;99521.13;5014734;28;20041;-79
2021/10/03 09:59:27;;;;;;;0.20;0.20;;;;;;;17.09;81.34;99517.13;5013445;28;20045;-79
2021/10/03 10:02:01;;;;;;;0.20;0.20;;;;;;;16.98;80.68;99527.84;5011141;28;20054;-79
2021/10/03 10:04:31;;;;;;;0.20;0.20;;;;;;;17.01;83.92;99516.13;5012042;28;20056;-79
2021/10/03 10:06:59;;;;;;;0.20;0.20;;;;;;;17.03;83.12;99513.84;5013582;28;20069;-79
2021/10/03 10:09:35;;;;;;;0.20;0.20;;;;;;;16.90;80.91;99524.06;5029635;28;20064;-79
2021/10/03 10:12:13;;;;;;;0.20;0.20;;;;;;;16.91;81.26;99522.16;5011930;28;20046;-79
2021/10/03 10:14:44;;;;;;;0.20;0.20;;;;;;;16.93;81.61;99519.84;5012012;28;20053;-80
2021/10/03 10:17:28;;;;;;;0.17;0.17;;;;;;;16.94;83.92;99510.44;5013406;28;20060;-79
2021/10/03 10:20:27;;;;;;;0.20;0.20;;;;;;;16.95;83.39;99518.34;5014366;28;20394;-79
2021/10/03 10:23:01;;;;;;;0.20;0.20;;;;;;;17.02;82.96;99512.22;5011964;28;20053;-79
2021/10/03 10:25:40;;;;;;;0.20;0.20;;;;;;;17.14;81.30;99509.41;5011425;28;20517;-79
2021/10/03 10:28:18;;;;;;;0.10;0.10;;;;;;;17.24;80.40;99510.06;5027355;28;20453;-79
2021/10/03 10:31:07;;;;;;;0.20;0.20;;;;;;;17.37;79.86;99500.56;5013490;28;20049;-79
2021/10/03 10:34:05;;;;;;;0.20;0.20;;;;;;;17.60;78.89;99511.72;5007551;28;20054;-79
2021/10/03 10:36:55;;;;;;;0.10;0.10;;;;;;;17.70;77.35;99518.66;4976195;28;20054;-77
2021/10/03 10:39:29;;;;;;;0.20;0.20;;;;;;;17.79;76.67;99515.72;5012087;28;20049;-80
2021/10/03 10:42:02;;;;;;;0.20;0.20;;;;;;;17.78;75.66;99516.88;5012013;28;20046;-79
2021/10/03 10:44:38;;;;;;;0.15;0.15;;;;;;;17.91;76.32;99507.41;5013581;28;20054;-81
2021/10/03 10:47:18;;;;;;;0.20;0.20;;;;;;;17.80;77.78;99520.06;5013178;28;20049;-79
2021/10/03 10:49:52;;;;;;;0.20;0.20;;;;;;;17.77;73.45;99521.59;5023153;28;20060;-79
2021/10/03 10:52:32;;;;;;;0.20;0.20;;;;;;;17.80;74.85;99531.06;5026814;28;20061;-78
2021/10/03 10:55:25;;;;;;;0.20;0.20;;;;;;;17.79;75.18;99507.47;5013507;28;20049;-78
2021/10/03 10:58:12;;;;;;;0.20;0.20;;;;;;;17.87;75.05;99512.00;5020599;28;20057;-79
2021/10/03 11:01:18;;;;;;;0.22;0.20;;;;;;;17.86;74.90;99504.88;5010587;28;20076;-79
2021/10/03 11:03:59;;;;;;;0.10;0.10;;;;;;;17.93;73.34;99480.28;5002737;28;20054;-78
2021/10/03 11:07:04;;;;;;;0.20;0.20;;;;;;;17.89;71.16;99506.91;5008388;28;20050;-79
2021/10/03 11:10:04;;;;;;;0.20;0.20;;;;;;;17.97;71.91;99499.66;5024786;28;20442;-78
2021/10/03 11:12:38;;;;;;;0.20;0.20;;;;;;;17.94;73.12;99501.16;5010727;28;20054;-79
2021/10/03 11:15:33;;;;;;;0.20;0.20;;;;;;;18.04;73.75;99491.53;5025597;28;20045;-80
2021/10/03 11:18:05;;;;;;;0.10;0.10;;;;;;;18.12;73.84;99498.81;5019338;28;20491;-79
2021/10/03 11:20:34;;;;;;;0.13;0.13;;;;;;;18.22;71.68;99500.19;5019769;28;20060;-78
2021/10/03 11:23:07;;;;;;;0.20;0.20;;;;;;;18.31;73.21;99486.22;5021506;28;20057;-78
2021/10/03 11:25:41;;;;;;;0.20;0.20;;;;;;;18.33;70.77;99497.69;5034645;28;20049;-78
2021/10/03 11:28:15;;;;;;;0.20;0.20;;;;;;;18.33;71.84;99483.91;5024207;28;20047;-79
2021/10/03 11:30:53;;;;;;;0.20;0.20;;;;;;;18.48;70.98;99501.53;5023994;28;20053;-79
2021/10/03 11:33:26;;;;;;;0.20;0.20;;;;;;;18.42;71.88;99492.75;5013273;28;20072;-79
2021/10/03 11:36:04;;;;;;;0.20;0.20;;;;;;;18.47;71.22;99481.44;5024823;28;20163;-78
2021/10/03 11:38:47;;;;;;;0.20;0.20;;;;;;;18.58;69.92;99480.88;5011314;28;20052;-78
2021/10/03 11:41:20;;;;;;;0.10;0.10;;;;;;;18.59;71.31;99493.47;5020247;28;20643;-78
2021/10/03 11:43:55;;;;;;;0.20;0.20;;;;;;;18.62;71.34;99504.56;5017250;28;20425;-78
2021/10/03 11:46:28;;;;;;;0.15;0.15;;;;;;;18.57;71.08;99502.09;5025330;28;20053;-78
2021/10/03 11:48:57;;;;;;;0.10;0.10;;;;;;;18.46;72.65;99488.13;5021859;28;20053;-78
2021/10/03 11:51:43;;;;;;;0.20;0.20;;;;;;;18.52;72.32;99477.59;5023273;28;20042;-78
2021/10/03 11:54:28;;;;;;;0.30;0.20;;;;;;;18.56;70.78;99499.69;5023486;28;20382;-78
2021/10/03 11:57:17;;;;;;;0.20;0.20;;;;;;;18.54;71.49;99502.81;5022028;28;20057;-78
2021/10/03 12:00:02;;;;;;;0.20;0.20;;;;;;;18.54;73.12;99491.81;5013896;28;20060;-77
2021/10/03 12:02:37;;;;;;;0.20;0.20;;;;;;;18.55;70.51;99507.19;4998446;28;20053;-79
2021/10/03 12:05:12;;;;;;;0.20;0.20;;;;;;;18.61;70.07;99508.47;5014055;28;20053;-77
2021/10/03 12:07:40;;;;;;;0.10;0.10;;;;;;;18.58;70.00;99498.19;5017548;28;20056;-77